Time;durP1;ratioP1;P1;durP2;ratioP2;P2;SDS_P1;SDS_P2;PMS_P1;PMS_P2;Temp;Humidity;BMP_temperature;BMP_pressure;BME280_temperature;BME280_humidity;BME280_pressure;Samples;Min_cycle;Max_cycle;Signal;HPM_P1;HPM_P2
2022/01/28 00:12:20;;;;;;;6.15;1.58;;;8.60;71.30;;;;;;20656952;28;20113;-80
2022/01/28 00:42:59;;;;;;;12.55;1.83;;;8.60;71.00;;;;;;20663272;28;20038;-80
2022/01/28 00:53:00;;;;;;;5.95;1.38;;;8.60;71.00;;;;;;20643550;28;20117;-80
2022/01/28 01:03:00;;;;;;;7.07;1.58;;;8.60;71.00;;;;;;20658152;28;20117;-80
2022/01/28 01:13:01;;;;;;;3.97;0.90;;;8.60;70.80;;;;;;20641219;28;20031;-80
2022/01/28 01:23:11;;;;;;;4.18;1.23;;;8.60;70.80;;;;;;20655668;28;20035;-81
2022/01/28 01:33:12;;;;;;;6.35;1.58;;;8.60;70.80;;;;;;20672103;28;20108;-80
2022/01/28 01:43:28;;;;;;;9.18;1.75;;;8.60;70.90;;;;;;20655305;28;20038;-81
2022/01/28 01:53:29;;;;;;;7.15;1.70;;;8.60;70.90;;;;;;20640742;28;20133;-80
2022/01/28 02:03:29;;;;;;;7.18;1.30;;;8.60;71.00;;;;;;20637608;28;20465;-81
2022/01/28 02:13:33;;;;;;;3.40;1.43;;;8.60;71.00;;;;;;20649995;28;20065;-80
2022/01/28 02:23:34;;;;;;;6.07;1.55;;;8.70;71.00;;;;;;20619170;28;20326;-80
2022/01/28 02:33:35;;;;;;;7.80;1.58;;;8.60;71.00;;;;;;20634784;28;20388;-81
2022/01/28 02:43:43;;;;;;;7.68;1.80;;;8.50;71.00;;;;;;20634333;28;20433;-80
2022/01/28 02:53:49;;;;;;;5.15;1.52;;;8.60;71.00;;;;;;20635358;28;20317;-82
2022/01/28 03:03:50;;;;;;;7.18;1.70;;;8.60;71.00;;;;;;20634737;28;20113;-81
2022/01/28 03:24:12;;;;;;;7.93;1.20;;;8.50;71.00;;;;;;20650218;28;20543;-81
2022/01/28 03:34:13;;;;;;;7.75;2.22;;;8.50;71.00;;;;;;20631493;28;20365;-81
2022/01/28 03:44:13;;;;;;;3.85;1.25;;;8.60;71.00;;;;;;20629996;28;20038;-80
2022/01/28 03:54:14;;;;;;;8.13;2.05;;;8.50;70.90;;;;;;20646522;28;20050;-81
2022/01/28 04:05:03;;;;;;;5.00;1.60;;;8.50;70.90;;;;;;20661762;28;20061;-81
2022/01/28 04:14:48;;;;;;;6.70;1.38;;;8.50;70.80;;;;;;20634824;28;20133;-80
2022/01/28 04:24:48;;;;;;;10.15;1.42;;;8.50;70.70;;;;;;20656337;28;20489;-81
2022/01/28 04:34:49;;;;;;;5.25;1.63;;;8.50;70.70;;;;;;20550243;28;20088;-81
2022/01/28 05:15:35;;;;;;;6.90;1.67;;;8.50;70.30;;;;;;20608394;28;20041;-80
2022/01/28 05:25:50;;;;;;;8.68;1.65;;;8.60;70.10;;;;;;20593546;28;20042;-82
2022/01/28 05:35:51;;;;;;;6.38;1.90;;;8.90;69.50;;;;;;20591625;28;20429;-80
2022/01/28 05:45:51;;;;;;;2.30;1.15;;;9.30;68.50;;;;;;20574779;28;20038;-82
2022/01/28 05:55:52;;;;;;;6.25;1.10;;;9.60;67.40;;;;;;20574091;28;20042;-80
2022/01/28 06:05:52;;;;;;;5.47;1.85;;;9.80;66.40;;;;;;20572897;28;20034;-78
2022/01/28 06:15:55;;;;;;;3.77;1.10;;;9.90;65.80;;;;;;20651749;28;20088;-78
2022/01/28 06:25:56;;;;;;;3.58;1.10;;;9.90;65.40;;;;;;20636638;28;20631;-78
2022/01/28 06:35:56;;;;;;;6.88;2.90;;;9.80;65.60;;;;;;20631411;28;20030;-77
2022/01/28 06:45:57;;;;;;;4.93;1.27;;;9.50;66.00;;;;;;20663500;28;20057;-76
2022/01/28 06:56:01;;;;;;;4.10;1.40;;;9.30;66.50;;;;;;20664931;28;20084;-79
2022/01/28 07:06:01;;;;;;;7.43;1.55;;;9.10;66.90;;;;;;20646551;28;20519;-77
2022/01/28 07:16:02;;;;;;;9.02;1.77;;;9.00;67.20;;;;;;20665061;28;20030;-75
2022/01/28 07:26:03;;;;;;;4.20;1.33;;;8.90;67.60;;;;;;20651501;28;20060;-75
2022/01/28 07:36:03;;;;;;;5.90;1.63;;;8.80;67.80;;;;;;20642663;28;20045;-75
2022/01/28 07:46:04;;;;;;;4.65;1.15;;;8.70;68.00;;;;;;20624216;28;20057;-74
2022/01/28 07:56:05;;;;;;;10.77;1.70;;;8.70;68.10;;;;;;20627427;28;20042;-73
2022/01/28 08:06:06;;;;;;;8.77;2.17;;;8.70;68.30;;;;;;20643443;28;20035;-72
2022/01/28 08:16:06;;;;;;;9.07;1.75;;;8.60;68.30;;;;;;20638269;28;20038;-75
2022/01/28 08:26:07;;;;;;;6.10;1.65;;;8.60;68.40;;;;;;20627841;28;20202;-74
2022/01/28 08:36:07;;;;;;;11.02;2.05;;;8.60;68.50;;;;;;20625650;28;20093;-73
2022/01/28 08:46:08;;;;;;;5.53;1.48;;;8.60;68.60;;;;;;20695131;28;20057;-77
2022/01/28 08:56:09;;;;;;;6.95;1.02;;;8.60;68.70;;;;;;20658939;28;20034;-77
2022/01/28 09:06:10;;;;;;;4.60;2.08;;;8.60;68.80;;;;;;20676307;28;20053;-76
2022/01/28 09:16:12;;;;;;;7.80;1.60;;;8.50;68.80;;;;;;20727219;28;20030;-76
2022/01/28 09:26:15;;;;;;;10.57;2.08;;;8.50;68.70;;;;;;20639513;28;20061;-75
2022/01/28 09:36:15;;;;;;;6.90;1.65;;;8.50;68.70;;;;;;20634886;28;20046;-75
2022/01/28 09:46:17;;;;;;;6.53;1.77;;;8.50;68.50;;;;;;20648758;28;20393;-75
2022/01/28 09:56:18;;;;;;;8.75;2.03;;;8.60;68.40;;;;;;20597101;28;20023;-77
2022/01/28 10:06:31;;;;;;;6.45;1.65;;;8.50;68.30;;;;;;20651035;28;20116;-78
2022/01/28 10:16:32;;;;;;;12.15;3.03;;;8.60;68.20;;;;;;20714649;28;20672;-77
2022/01/28 10:27:10;;;;;;;13.07;2.80;;;8.60;68.10;;;;;;20632394;28;20756;-78
2022/01/28 10:37:25;;;;;;;8.93;2.53;;;8.60;68.10;;;;;;20664788;28;20065;-76
2022/01/28 10:47:34;;;;;;;10.65;2.63;;;8.60;68.00;;;;;;20676855;28;20064;-81
2022/01/28 10:57:34;;;;;;;7.70;1.70;;;8.60;67.90;;;;;;20702116;28;20052;-77
2022/01/28 11:07:35;;;;;;;11.13;2.17;;;8.60;67.80;;;;;;20721448;28;20066;-74
2022/01/28 11:17:37;;;;;;;8.25;2.05;;;8.60;67.70;;;;;;20627788;28;20123;-78
2022/01/28 11:27:38;;;;;;;10.10;1.88;;;8.80;67.40;;;;;;20635629;28;20060;-78
2022/01/28 11:37:39;;;;;;;9.45;1.98;;;8.90;66.90;;;;;;20647633;28;20065;-79
2022/01/28 11:47:54;;;;;;;7.13;2.20;;;8.90;66.60;;;;;;20957873;23;20047;-83
2022/01/28 11:58:14;;;;;;;11.07;2.47;;;8.90;66.60;;;;;;20568327;28;20125;-81
2022/01/28 12:08:17;;;;;;;9.43;2.25;;;8.80;66.50;;;;;;20599978;28;20034;-81
2022/01/28 12:18:19;;;;;;;10.48;2.63;;;8.80;66.60;;;;;;20610269;28;20054;-79
2022/01/28 12:28:31;;;;;;;13.43;1.73;;;8.80;66.70;;;;;;20565184;28;20485;-78
2022/01/28 12:38:37;;;;;;;11.45;2.00;;;8.70;66.50;;;;;;20599441;28;20042;-78
2022/01/28 12:48:53;;;;;;;8.88;1.98;;;8.70;66.50;;;;;;20581814;28;20134;-79
2022/01/28 12:58:54;;;;;;;11.15;2.85;;;8.70;66.50;;;;;;20559187;28;20050;-81
2022/01/28 13:08:55;;;;;;;9.32;1.88;;;8.70;66.60;;;;;;20575685;28;20129;-77
2022/01/28 13:18:56;;;;;;;6.88;1.50;;;8.60;66.60;;;;;;20543337;28;20397;-78
2022/01/28 13:29:05;;;;;;;7.80;1.60;;;8.60;66.60;;;;;;20575777;28;20047;-78
2022/01/28 13:39:16;;;;;;;9.93;1.77;;;8.60;66.60;;;;;;20559549;28;20061;-77
2022/01/28 13:49:17;;;;;;;4.97;1.73;;;8.60;66.60;;;;;;20574600;28;20041;-80
2022/01/28 13:59:25;;;;;;;9.77;1.77;;;8.60;66.60;;;;;;20575043;28;20047;-81
2022/01/28 14:09:26;;;;;;;10.52;1.63;;;8.50;66.50;;;;;;20558530;28;20134;-80
2022/01/28 14:19:28;;;;;;;10.07;1.58;;;8.50;66.50;;;;;;20572519;28;20110;-80
2022/01/28 14:29:50;;;;;;;8.80;1.60;;;8.60;66.60;;;;;;20570202;28;20054;-79
2022/01/28 14:39:52;;;;;;;15.55;1.30;;;8.60;66.60;;;;;;20573679;28;20062;-80
2022/01/28 14:49:53;;;;;;;9.23;1.63;;;8.60;66.50;;;;;;20554577;28;20035;-73
2022/01/28 14:59:56;;;;;;;9.13;1.60;;;8.70;66.30;;;;;;20553059;28;20489;-77
2022/01/28 15:09:58;;;;;;;7.47;1.92;;;8.70;66.40;;;;;;20552126;28;20043;-78
2022/01/28 15:20:01;;;;;;;10.82;1.80;;;8.60;66.40;;;;;;20533476;28;20385;-77
2022/01/28 15:30:19;;;;;;;4.90;2.42;;;8.60;66.40;;;;;;20565619;28;20069;-77
2022/01/28 15:40:21;;;;;;;8.10;1.92;;;8.70;66.60;;;;;;20569109;28;20062;-77
2022/01/28 15:50:22;;;;;;;6.43;1.98;;;8.70;66.50;;;;;;20533431;28;20042;-77
2022/01/28 16:00:23;;;;;;;6.22;2.08;;;8.80;66.20;;;;;;20575757;28;20113;-79
2022/01/28 16:10:34;;;;;;;5.57;1.65;;;9.10;65.70;;;;;;20544563;28;20042;-79
2022/01/28 16:20:36;;;;;;;11.70;2.53;;;9.40;64.90;;;;;;20552079;28;20477;-78
2022/01/28 16:30:37;;;;;;;9.52;1.90;;;9.60;63.90;;;;;;20550289;28;20043;-77
2022/01/28 16:40:39;;;;;;;10.13;3.28;;;9.90;63.30;;;;;;20580359;28;20035;-77
2022/01/28 16:50:43;;;;;;;6.05;1.67;;;9.90;62.90;;;;;;20553180;28;20045;-79
2022/01/28 17:00:45;;;;;;;5.80;2.47;;;9.70;63.10;;;;;;20578521;28;20066;-77
2022/01/28 17:10:58;;;;;;;6.05;1.88;;;9.50;63.50;;;;;;20577549;28;20050;-78
2022/01/28 17:21:03;;;;;;;9.60;3.20;;;9.30;64.00;;;;;;20564074;28;20027;-77
2022/01/28 17:31:05;;;;;;;4.53;1.70;;;9.20;64.40;;;;;;20562186;28;20085;-78
2022/01/28 17:41:08;;;;;;;4.75;1.77;;;9.00;64.80;;;;;;20591414;28;20158;-77
2022/01/28 17:51:09;;;;;;;7.13;2.30;;;9.00;65.20;;;;;;20509794;28;20047;-77
2022/01/28 18:01:10;;;;;;;3.75;1.30;;;8.90;65.50;;;;;;20509642;28;20042;-77
2022/01/28 18:11:11;;;;;;;3.63;1.30;;;8.80;65.60;;;;;;20525068;28;20087;-78
2022/01/28 18:21:15;;;;;;;5.85;1.40;;;8.80;65.90;;;;;;20508389;29;20490;-77
2022/01/28 18:31:16;;;;;;;4.20;1.80;;;8.80;66.00;;;;;;20507510;29;20079;-78
2022/01/28 18:41:18;;;;;;;8.40;1.67;;;8.80;66.30;;;;;;20522857;28;20032;-79
2022/01/28 18:51:21;;;;;;;5.63;1.60;;;8.80;66.40;;;;;;20506443;28;20073;-77
2022/01/28 19:01:22;;;;;;;6.45;1.42;;;8.80;66.70;;;;;;20521175;28;20035;-78
2022/01/28 19:11:24;;;;;;;4.55;1.38;;;8.70;66.60;;;;;;20503486;28;20138;-77
2022/01/28 19:21:26;;;;;;;8.13;1.50;;;8.70;66.70;;;;;;20521125;28;20046;-78
2022/01/28 19:31:28;;;;;;;8.13;1.20;;;8.70;66.80;;;;;;20519188;28;20496;-77
2022/01/28 19:41:28;;;;;;;3.75;1.27;;;8.70;66.80;;;;;;20502882;29;20035;-77
2022/01/28 19:51:29;;;;;;;6.15;1.67;;;8.70;66.90;;;;;;20502060;28;20050;-77
2022/01/28 20:01:34;;;;;;;5.78;1.67;;;8.70;66.90;;;;;;20502990;29;20043;-78
2022/01/28 20:11:34;;;;;;;3.97;1.58;;;8.70;66.90;;;;;;20501414;29;20054;-78
2022/01/28 20:21:35;;;;;;;9.57;1.08;;;8.70;67.00;;;;;;20501073;29;20031;-78
2022/01/28 20:31:37;;;;;;;5.60;1.50;;;8.70;67.00;;;;;;20499689;29;20035;-78
2022/01/28 20:41:37;;;;;;;10.20;1.67;;;8.70;66.90;;;;;;20515778;29;20035;-78
2022/01/28 20:51:38;;;;;;;5.70;1.58;;;8.70;67.00;;;;;;20514929;28;20047;-78
2022/01/28 21:01:39;;;;;;;5.65;1.52;;;8.70;67.00;;;;;;20514364;29;20031;-78
2022/01/28 21:11:39;;;;;;;4.53;1.80;;;8.70;67.00;;;;;;20513488;28;20043;-78
2022/01/28 21:21:40;;;;;;;3.40;1.70;;;8.70;67.00;;;;;;20512937;29;20066;-78
2022/01/28 21:31:42;;;;;;;3.20;1.35;;;8.70;67.00;;;;;;20511959;29;20327;-77
2022/01/28 21:41:43;;;;;;;5.57;1.27;;;8.70;67.00;;;;;;20526204;28;20039;-77
2022/01/28 21:51:44;;;;;;;9.07;1.77;;;8.70;67.00;;;;;;20526716;28;20031;-78
2022/01/28 22:01:44;;;;;;;3.80;1.60;;;8.70;67.00;;;;;;20526402;28;20073;-78
2022/01/28 22:11:45;;;;;;;3.50;1.80;;;8.70;67.00;;;;;;20508995;29;20047;-77
2022/01/28 22:21:47;;;;;;;4.78;1.38;;;8.70;67.00;;;;;;20524603;28;20036;-78
2022/01/28 22:31:48;;;;;;;4.53;2.20;;;8.70;67.10;;;;;;20507192;29;20043;-77
2022/01/28 22:41:48;;;;;;;3.70;1.30;;;8.70;67.10;;;;;;20605682;28;20045;-77
2022/01/28 22:51:49;;;;;;;2.83;1.40;;;8.80;67.20;;;;;;20649600;28;20034;-77
2022/01/28 23:01:50;;;;;;;5.00;1.70;;;8.70;67.20;;;;;;20633390;28;20652;-78
2022/01/28 23:11:50;;;;;;;3.13;1.15;;;8.70;67.20;;;;;;20632810;28;20070;-78
2022/01/28 23:21:52;;;;;;;4.30;1.27;;;8.70;67.20;;;;;;20647417;28;20038;-78
2022/01/28 23:31:53;;;;;;;6.22;1.33;;;8.70;67.20;;;;;;20632559;28;20061;-77
2022/01/28 23:41:55;;;;;;;1.73;0.88;;;8.70;67.20;;;;;;20647128;28;20038;-78
2022/01/28 23:51:56;;;;;;;7.68;1.50;;;8.70;67.20;;;;;;20614041;28;20196;-78
